GFA220 OKKK-OBBI
Flight info
| Callsign | GFA220 |
|---|---|
| Flight time | 0h 43m |
| Altitude | 27000 |
| Route | BOXIK B416 IMDOX P975 LONOS L703 KOBOK |
| Aircraft | A320/M-SDE3FGHIRWY/LB1 |
Departure
| Time | 2026-04-27 17:28 |
|---|---|
| Airport | Kuwait International Airport (OKKK) |
Arrival
| Time | 2026-04-27 18:12 |
|---|---|
| Airport | Bahrain International Airport (OBBI) |
| Time | Latitude | Longitude | Altitude | Speed | Heading |
|---|---|---|---|---|---|
| 2026-04-27 16:58 | 29.23947 | 47.97250 | 158 ft | 0 kts | 289° |
| 2026-04-27 17:17 | 29.23947 | 47.97251 | 158 ft | 2 kts | 289° |
| 2026-04-27 17:17 | 29.23939 | 47.97274 | 144 ft | 5 kts | 289° |
| 2026-04-27 17:18 | 29.23935 | 47.97338 | 159 ft | 2 kts | 258° |
| 2026-04-27 17:18 | 29.23938 | 47.97350 | 160 ft | 2 kts | 211° |
| 2026-04-27 17:18 | 29.23945 | 47.97354 | 160 ft | 0 kts | 176° |
| 2026-04-27 17:21 | 29.23936 | 47.97355 | 160 ft | 7 kts | 173° |
| 2026-04-27 17:21 | 29.23840 | 47.97382 | 160 ft | 12 kts | 161° |
| 2026-04-27 17:21 | 29.23769 | 47.97426 | 161 ft | 12 kts | 156° |
| 2026-04-27 17:22 | 29.23682 | 47.97457 | 161 ft | 14 kts | 189° |
| 2026-04-27 17:22 | 29.23628 | 47.97373 | 160 ft | 13 kts | 246° |
| 2026-04-27 17:22 | 29.23596 | 47.97290 | 158 ft | 9 kts | 246° |
| 2026-04-27 17:22 | 29.23570 | 47.97217 | 157 ft | 16 kts | 249° |
| 2026-04-27 17:23 | 29.23509 | 47.97072 | 155 ft | 21 kts | 249° |
| 2026-04-27 17:23 | 29.23555 | 47.96992 | 154 ft | 2 kts | 338° |
| 2026-04-27 17:24 | 29.23556 | 47.96992 | 154 ft | 1 kts | 338° |
| 2026-04-27 17:24 | 29.23633 | 47.96953 | 153 ft | 23 kts | 336° |
| 2026-04-27 17:24 | 29.23743 | 47.96835 | 151 ft | 23 kts | 272° |
| 2026-04-27 17:24 | 29.23673 | 47.96679 | 152 ft | 14 kts | 246° |
| 2026-04-27 17:25 | 29.23682 | 47.96596 | 153 ft | 10 kts | 330° |
| 2026-04-27 17:25 | 29.23743 | 47.96561 | 152 ft | 10 kts | 334° |
| 2026-04-27 17:25 | 29.23802 | 47.96528 | 151 ft | 9 kts | 333° |
| 2026-04-27 17:25 | 29.23857 | 47.96496 | 151 ft | 9 kts | 337° |
| 2026-04-27 17:26 | 29.23924 | 47.96464 | 150 ft | 19 kts | 336° |
| 2026-04-27 17:26 | 29.24087 | 47.96376 | 148 ft | 10 kts | 326° |
| 2026-04-27 17:26 | 29.24102 | 47.96351 | 148 ft | 8 kts | 278° |
| 2026-04-27 17:26 | 29.24078 | 47.96281 | 155 ft | 6 kts | 247° |
| 2026-04-27 17:27 | 29.24071 | 47.96265 | 157 ft | 4 kts | 241° |
| 2026-04-27 17:27 | 29.23968 | 47.96197 | 165 ft | 26 kts | 156° |
| 2026-04-27 17:27 | 29.23746 | 47.96318 | 167 ft | 46 kts | 156° |
| 2026-04-27 17:27 | 29.23243 | 47.96588 | 177 ft | 110 kts | 155° |
| 2026-04-27 17:28 | 29.22707 | 47.96871 | 176 ft | 145 kts | 154° |
| 2026-04-27 17:28 | 29.21676 | 47.97421 | 393 ft | 171 kts | 153° |
| 2026-04-27 17:28 | 29.19764 | 47.98928 | 1745 ft | 174 kts | 119° |
| 2026-04-27 17:29 | 29.19236 | 48.00199 | 2227 ft | 187 kts | 119° |
| 2026-04-27 17:29 | 29.18649 | 48.01620 | 2487 ft | 209 kts | 118° |
| 2026-04-27 17:29 | 29.17988 | 48.03208 | 2714 ft | 233 kts | 119° |
| 2026-04-27 17:29 | 29.16974 | 48.05572 | 3187 ft | 263 kts | 121° |
| 2026-04-27 17:30 | 29.16375 | 48.06839 | 3650 ft | 269 kts | 122° |
| 2026-04-27 17:30 | 29.14502 | 48.10624 | 5251 ft | 279 kts | 123° |
| 2026-04-27 17:30 | 29.13538 | 48.12548 | 5994 ft | 285 kts | 123° |
| 2026-04-27 17:31 | 29.12542 | 48.14539 | 6726 ft | 290 kts | 123° |
| 2026-04-27 17:31 | 29.11534 | 48.16568 | 7464 ft | 296 kts | 122° |
| 2026-04-27 17:31 | 29.10513 | 48.18631 | 8220 ft | 300 kts | 122° |
| 2026-04-27 17:31 | 29.09475 | 48.20732 | 8980 ft | 305 kts | 122° |
| 2026-04-27 17:32 | 29.08424 | 48.22859 | 9746 ft | 309 kts | 122° |
| 2026-04-27 17:32 | 29.06198 | 48.27347 | 10496 ft | 346 kts | 122° |
| 2026-04-27 17:32 | 29.04984 | 48.29797 | 10869 ft | 361 kts | 121° |
| 2026-04-27 17:33 | 29.03740 | 48.32317 | 11510 ft | 366 kts | 121° |
| 2026-04-27 17:33 | 29.02481 | 48.34872 | 12208 ft | 370 kts | 121° |
| 2026-04-27 17:33 | 29.01207 | 48.37452 | 12914 ft | 374 kts | 121° |
| 2026-04-27 17:33 | 28.99917 | 48.40054 | 13613 ft | 378 kts | 121° |
| 2026-04-27 17:34 | 28.98631 | 48.42648 | 14135 ft | 385 kts | 121° |
| 2026-04-27 17:34 | 28.97271 | 48.45389 | 14252 ft | 405 kts | 121° |
| 2026-04-27 17:34 | 28.95852 | 48.48247 | 14376 ft | 422 kts | 121° |
| 2026-04-27 17:34 | 28.94375 | 48.51223 | 14559 ft | 435 kts | 121° |
| 2026-04-27 17:35 | 28.92870 | 48.54255 | 14960 ft | 441 kts | 121° |
| 2026-04-27 17:35 | 28.91347 | 48.57321 | 15425 ft | 445 kts | 121° |
| 2026-04-27 17:35 | 28.89814 | 48.60412 | 15902 ft | 449 kts | 122° |
| 2026-04-27 17:35 | 28.88286 | 48.63489 | 16370 ft | 453 kts | 122° |
| 2026-04-27 17:36 | 28.86725 | 48.66624 | 16820 ft | 457 kts | 122° |
| 2026-04-27 17:36 | 28.85132 | 48.69811 | 17027 ft | 466 kts | 122° |
| 2026-04-27 17:36 | 28.83513 | 48.73045 | 17373 ft | 471 kts | 122° |
| 2026-04-27 17:36 | 28.81877 | 48.76308 | 17780 ft | 475 kts | 122° |
| 2026-04-27 17:37 | 28.80229 | 48.79597 | 18166 ft | 479 kts | 122° |
| 2026-04-27 17:37 | 28.78582 | 48.82906 | 18564 ft | 480 kts | 122° |
| 2026-04-27 17:37 | 28.76949 | 48.86231 | 19021 ft | 481 kts | 122° |
| 2026-04-27 17:37 | 28.75314 | 48.89581 | 19409 ft | 483 kts | 122° |
| 2026-04-27 17:38 | 28.73683 | 48.92938 | 19769 ft | 485 kts | 122° |
| 2026-04-27 17:38 | 28.72039 | 48.96312 | 20121 ft | 488 kts | 122° |
| 2026-04-27 17:38 | 28.70402 | 48.99654 | 20464 ft | 490 kts | 122° |
| 2026-04-27 17:38 | 28.68731 | 49.03050 | 20801 ft | 492 kts | 122° |
| 2026-04-27 17:39 | 28.67049 | 49.06465 | 21118 ft | 495 kts | 122° |
| 2026-04-27 17:39 | 28.65361 | 49.09890 | 21428 ft | 497 kts | 123° |
| 2026-04-27 17:39 | 28.63661 | 49.13336 | 21739 ft | 500 kts | 123° |
| 2026-04-27 17:39 | 28.61947 | 49.16810 | 22032 ft | 503 kts | 123° |
| 2026-04-27 17:40 | 28.60184 | 49.20257 | 22319 ft | 503 kts | 127° |
| 2026-04-27 17:40 | 28.57993 | 49.23330 | 22607 ft | 498 kts | 139° |
| 2026-04-27 17:40 | 28.55352 | 49.25838 | 22890 ft | 493 kts | 150° |
| 2026-04-27 17:40 | 28.52380 | 49.27757 | 23166 ft | 489 kts | 158° |
| 2026-04-27 17:41 | 28.49496 | 49.29790 | 23423 ft | 500 kts | 146° |
| 2026-04-27 17:41 | 28.46864 | 49.32406 | 23641 ft | 505 kts | 143° |
| 2026-04-27 17:41 | 28.44241 | 49.35084 | 23871 ft | 507 kts | 143° |
| 2026-04-27 17:41 | 28.41611 | 49.37763 | 24089 ft | 509 kts | 143° |
| 2026-04-27 17:42 | 28.38958 | 49.40437 | 24302 ft | 511 kts | 144° |
| 2026-04-27 17:42 | 28.36283 | 49.43101 | 24498 ft | 512 kts | 144° |
| 2026-04-27 17:42 | 28.33591 | 49.45759 | 24713 ft | 514 kts | 144° |
| 2026-04-27 17:42 | 28.30874 | 49.48431 | 24930 ft | 516 kts | 144° |
| 2026-04-27 17:43 | 28.28150 | 49.51106 | 25123 ft | 518 kts | 145° |
| 2026-04-27 17:43 | 28.25419 | 49.53794 | 25339 ft | 520 kts | 145° |
| 2026-04-27 17:43 | 28.22711 | 49.56465 | 25541 ft | 522 kts | 145° |
| 2026-04-27 17:43 | 28.19940 | 49.59121 | 25911 ft | 518 kts | 147° |
| 2026-04-27 17:44 | 28.17134 | 49.61648 | 26361 ft | 513 kts | 149° |
| 2026-04-27 17:44 | 28.14284 | 49.64077 | 26661 ft | 512 kts | 150° |
| 2026-04-27 17:44 | 28.11404 | 49.66457 | 26796 ft | 512 kts | 150° |
| 2026-04-27 17:44 | 28.08517 | 49.68831 | 26829 ft | 512 kts | 150° |
| 2026-04-27 17:45 | 28.05640 | 49.71222 | 26828 ft | 513 kts | 150° |
| 2026-04-27 17:45 | 28.02770 | 49.73606 | 26830 ft | 512 kts | 151° |
| 2026-04-27 17:45 | 27.99862 | 49.75939 | 26826 ft | 511 kts | 152° |
| 2026-04-27 17:45 | 27.96927 | 49.78224 | 26826 ft | 510 kts | 153° |
| 2026-04-27 17:46 | 27.93985 | 49.80474 | 26826 ft | 510 kts | 153° |
| 2026-04-27 17:46 | 27.91040 | 49.82716 | 26827 ft | 510 kts | 153° |
| 2026-04-27 17:46 | 27.88091 | 49.84969 | 26826 ft | 510 kts | 153° |
| 2026-04-27 17:46 | 27.85187 | 49.87201 | 26826 ft | 511 kts | 152° |
| 2026-04-27 17:47 | 27.82250 | 49.89468 | 26827 ft | 511 kts | 152° |
| 2026-04-27 17:47 | 27.80260 | 49.91012 | 26824 ft | 511 kts | 152° |
| 2026-04-27 17:47 | 27.76376 | 49.94032 | 26823 ft | 511 kts | 152° |
| 2026-04-27 17:47 | 27.73444 | 49.96305 | 26820 ft | 510 kts | 152° |
| 2026-04-27 17:48 | 27.70511 | 49.98571 | 26817 ft | 510 kts | 152° |
| 2026-04-27 17:48 | 27.67612 | 50.00807 | 26820 ft | 510 kts | 152° |
| 2026-04-27 17:48 | 27.64670 | 50.03070 | 26820 ft | 510 kts | 152° |
| 2026-04-27 17:48 | 27.61741 | 50.05327 | 26784 ft | 505 kts | 152° |
| 2026-04-27 17:49 | 27.58899 | 50.07530 | 26685 ft | 485 kts | 152° |
| 2026-04-27 17:49 | 27.56182 | 50.09646 | 26562 ft | 467 kts | 153° |
| 2026-04-27 17:49 | 27.53545 | 50.11699 | 26429 ft | 451 kts | 153° |
| 2026-04-27 17:49 | 27.50997 | 50.13672 | 26202 ft | 438 kts | 153° |
| 2026-04-27 17:50 | 27.48498 | 50.15588 | 25749 ft | 432 kts | 153° |
| 2026-04-27 17:50 | 27.43583 | 50.19345 | 24906 ft | 428 kts | 153° |
| 2026-04-27 17:50 | 27.41139 | 50.21272 | 24734 ft | 428 kts | 152° |
| 2026-04-27 17:51 | 27.38762 | 50.23203 | 24506 ft | 411 kts | 152° |
| 2026-04-27 17:51 | 27.36512 | 50.25069 | 24149 ft | 395 kts | 152° |
| 2026-04-27 17:51 | 27.34322 | 50.26884 | 23568 ft | 388 kts | 152° |
| 2026-04-27 17:51 | 27.32154 | 50.28663 | 22844 ft | 383 kts | 152° |
| 2026-04-27 17:52 | 27.30009 | 50.30407 | 22152 ft | 378 kts | 152° |
| 2026-04-27 17:52 | 27.27886 | 50.32123 | 21498 ft | 373 kts | 152° |
| 2026-04-27 17:52 | 27.25784 | 50.33816 | 20866 ft | 368 kts | 151° |
| 2026-04-27 17:52 | 27.24408 | 50.34925 | 20450 ft | 365 kts | 151° |
| 2026-04-27 17:53 | 27.21666 | 50.37133 | 19636 ft | 359 kts | 150° |
| 2026-04-27 17:53 | 27.19669 | 50.38742 | 19062 ft | 355 kts | 150° |
| 2026-04-27 17:53 | 27.17672 | 50.40352 | 18494 ft | 351 kts | 149° |
| 2026-04-27 17:53 | 27.15696 | 50.41946 | 17910 ft | 347 kts | 149° |
| 2026-04-27 17:54 | 27.13739 | 50.43523 | 17264 ft | 344 kts | 149° |
| 2026-04-27 17:54 | 27.11796 | 50.45086 | 16717 ft | 339 kts | 149° |
| 2026-04-27 17:54 | 27.09929 | 50.46593 | 16515 ft | 323 kts | 149° |
| 2026-04-27 17:54 | 27.08121 | 50.48054 | 16106 ft | 316 kts | 149° |
| 2026-04-27 17:55 | 27.06345 | 50.49484 | 15620 ft | 313 kts | 149° |
| 2026-04-27 17:55 | 27.04578 | 50.50902 | 15129 ft | 311 kts | 148° |
| 2026-04-27 17:55 | 27.02847 | 50.52288 | 14658 ft | 308 kts | 148° |
| 2026-04-27 17:55 | 27.01109 | 50.53681 | 14187 ft | 306 kts | 148° |
| 2026-04-27 17:56 | 26.99345 | 50.54980 | 13720 ft | 301 kts | 155° |
| 2026-04-27 17:56 | 26.97461 | 50.55955 | 13217 ft | 295 kts | 164° |
| 2026-04-27 17:56 | 26.95511 | 50.56596 | 12722 ft | 289 kts | 172° |
| 2026-04-27 17:56 | 26.93542 | 50.56923 | 12230 ft | 284 kts | 178° |
| 2026-04-27 17:57 | 26.91585 | 50.57168 | 12024 ft | 282 kts | 178° |
| 2026-04-27 17:57 | 26.89635 | 50.57414 | 12024 ft | 282 kts | 178° |
| 2026-04-27 17:57 | 26.87676 | 50.57664 | 12028 ft | 284 kts | 177° |
| 2026-04-27 17:57 | 26.85716 | 50.57915 | 12024 ft | 283 kts | 177° |
| 2026-04-27 17:58 | 26.83757 | 50.58165 | 12025 ft | 283 kts | 177° |
| 2026-04-27 17:58 | 26.81824 | 50.58413 | 12010 ft | 282 kts | 177° |
| 2026-04-27 17:58 | 26.79877 | 50.58662 | 11740 ft | 280 kts | 177° |
| 2026-04-27 17:58 | 26.77944 | 50.58908 | 11455 ft | 279 kts | 177° |
| 2026-04-27 17:59 | 26.76021 | 50.59155 | 11163 ft | 277 kts | 177° |
| 2026-04-27 17:59 | 26.74110 | 50.59401 | 10895 ft | 275 kts | 177° |
| 2026-04-27 17:59 | 26.72207 | 50.59646 | 10614 ft | 273 kts | 176° |
| 2026-04-27 17:59 | 26.70321 | 50.59888 | 10326 ft | 272 kts | 176° |
| 2026-04-27 18:00 | 26.68471 | 50.60123 | 10039 ft | 270 kts | 176° |
| 2026-04-27 18:00 | 26.66608 | 50.60357 | 9759 ft | 268 kts | 176° |
| 2026-04-27 18:00 | 26.64758 | 50.60591 | 9440 ft | 267 kts | 176° |
| 2026-04-27 18:00 | 26.62919 | 50.60826 | 9119 ft | 265 kts | 176° |
| 2026-04-27 18:01 | 26.61090 | 50.61062 | 8870 ft | 261 kts | 176° |
| 2026-04-27 18:01 | 26.59319 | 50.61292 | 8739 ft | 249 kts | 176° |
| 2026-04-27 18:01 | 26.57655 | 50.61509 | 8608 ft | 231 kts | 176° |
| 2026-04-27 18:01 | 26.56100 | 50.61711 | 8397 ft | 220 kts | 177° |
| 2026-04-27 18:02 | 26.54608 | 50.61899 | 8074 ft | 217 kts | 177° |
| 2026-04-27 18:02 | 26.53111 | 50.62085 | 7715 ft | 215 kts | 177° |
| 2026-04-27 18:02 | 26.51623 | 50.62281 | 7357 ft | 215 kts | 173° |
| 2026-04-27 18:02 | 26.50281 | 50.62999 | 7005 ft | 220 kts | 138° |
| 2026-04-27 18:03 | 26.49341 | 50.64361 | 6629 ft | 223 kts | 125° |
| 2026-04-27 18:03 | 26.48532 | 50.65845 | 6247 ft | 223 kts | 123° |
| 2026-04-27 18:03 | 26.47746 | 50.67340 | 5837 ft | 223 kts | 123° |
| 2026-04-27 18:03 | 26.46970 | 50.68833 | 5443 ft | 221 kts | 123° |
| 2026-04-27 18:04 | 26.46205 | 50.70318 | 5052 ft | 220 kts | 123° |
| 2026-04-27 18:04 | 26.45449 | 50.71774 | 4676 ft | 218 kts | 128° |
| 2026-04-27 18:04 | 26.44392 | 50.72858 | 4634 ft | 183 kts | 163° |
| 2026-04-27 18:04 | 26.43228 | 50.73028 | 4760 ft | 169 kts | 197° |
| 2026-04-27 18:05 | 26.42109 | 50.72513 | 4283 ft | 182 kts | 211° |
| 2026-04-27 18:05 | 26.40971 | 50.71771 | 3866 ft | 193 kts | 213° |
| 2026-04-27 18:05 | 26.40048 | 50.70704 | 3611 ft | 194 kts | 245° |
| 2026-04-27 18:05 | 26.39917 | 50.69213 | 3374 ft | 200 kts | 282° |
| 2026-04-27 18:06 | 26.40545 | 50.67811 | 3126 ft | 205 kts | 300° |
| 2026-04-27 18:06 | 26.41377 | 50.66503 | 3010 ft | 208 kts | 303° |
| 2026-04-27 18:06 | 26.42241 | 50.65197 | 3011 ft | 210 kts | 303° |
| 2026-04-27 18:06 | 26.43105 | 50.63900 | 3009 ft | 210 kts | 303° |
| 2026-04-27 18:07 | 26.43981 | 50.62587 | 3012 ft | 210 kts | 303° |
| 2026-04-27 18:07 | 26.44752 | 50.61218 | 3010 ft | 205 kts | 283° |
| 2026-04-27 18:07 | 26.44765 | 50.59690 | 3011 ft | 196 kts | 246° |
| 2026-04-27 18:07 | 26.43974 | 50.58499 | 3015 ft | 192 kts | 218° |
| 2026-04-27 18:08 | 26.43274 | 50.57893 | 3012 ft | 192 kts | 215° |
| 2026-04-27 18:08 | 26.42171 | 50.57039 | 3008 ft | 192 kts | 213° |
| 2026-04-27 18:08 | 26.40706 | 50.55935 | 2904 ft | 191 kts | 213° |
| 2026-04-27 18:08 | 26.39962 | 50.55377 | 2747 ft | 191 kts | 213° |
| 2026-04-27 18:09 | 26.38858 | 50.54538 | 2512 ft | 192 kts | 213° |
| 2026-04-27 18:09 | 26.37773 | 50.53701 | 2294 ft | 192 kts | 213° |
| 2026-04-27 18:09 | 26.36616 | 50.52995 | 2090 ft | 188 kts | 189° |
| 2026-04-27 18:09 | 26.35337 | 50.53165 | 2006 ft | 189 kts | 158° |
| 2026-04-27 18:10 | 26.34167 | 50.53851 | 2007 ft | 191 kts | 151° |
| 2026-04-27 18:10 | 26.33009 | 50.54617 | 1845 ft | 195 kts | 154° |
| 2026-04-27 18:10 | 26.31756 | 50.55335 | 1508 ft | 219 kts | 144° |
| 2026-04-27 18:10 | 26.30832 | 50.56711 | 1095 ft | 229 kts | 120° |
| 2026-04-27 18:11 | 26.30067 | 50.58242 | 924 ft | 220 kts | 121° |
| 2026-04-27 18:11 | 26.29264 | 50.59624 | 578 ft | 207 kts | 125° |
| 2026-04-27 18:11 | 26.28491 | 50.60879 | 416 ft | 183 kts | 122° |
| 2026-04-27 18:11 | 26.27858 | 50.62022 | 124 ft | 164 kts | 121° |
| 2026-04-27 18:12 | 26.27273 | 50.63020 | 20 ft | 142 kts | 117° |
| 2026-04-27 18:12 | 26.26837 | 50.63793 | 18 ft | 62 kts | 122° |
| 2026-04-27 18:12 | 26.26768 | 50.63876 | 16 ft | 10 kts | 170° |
| 2026-04-27 18:12 | 26.26700 | 50.63827 | 19 ft | 9 kts | 235° |
| 2026-04-27 18:13 | 26.26686 | 50.63795 | 20 ft | 0 kts | 250° |
| 2026-04-27 18:13 | 26.26685 | 50.63793 | 20 ft | 3 kts | 250° |
| 2026-04-27 18:13 | 26.26682 | 50.63726 | 21 ft | 8 kts | 278° |
| 2026-04-27 18:14 | 26.26689 | 50.63695 | 22 ft | 1 kts | 288° |
| 2026-04-27 18:14 | 26.26689 | 50.63694 | 22 ft | 0 kts | 288° |
| 2026-04-27 18:14 | 26.26707 | 50.63658 | 22 ft | 14 kts | 300° |
| 2026-04-27 18:14 | 26.26759 | 50.63569 | 20 ft | 13 kts | 303° |
| 2026-04-27 18:15 | 26.26807 | 50.63486 | 21 ft | 13 kts | 302° |
| 2026-04-27 18:15 | 26.26850 | 50.63407 | 21 ft | 11 kts | 301° |
| 2026-04-27 18:15 | 26.26887 | 50.63343 | 20 ft | 9 kts | 303° |
| 2026-04-27 18:15 | 26.26919 | 50.63287 | 21 ft | 8 kts | 303° |
| 2026-04-27 18:16 | 26.26949 | 50.63235 | 21 ft | 8 kts | 302° |
| 2026-04-27 18:16 | 26.26958 | 50.63188 | 20 ft | 5 kts | 258° |
| 2026-04-27 18:16 | 26.26942 | 50.63163 | 20 ft | 3 kts | 226° |
| 2026-04-27 18:16 | 26.26924 | 50.63144 | 22 ft | 3 kts | 223° |
| 2026-04-27 18:17 | 26.26902 | 50.63126 | 21 ft | 5 kts | 216° |
| 2026-04-27 18:17 | 26.26874 | 50.63106 | 21 ft | 7 kts | 212° |
| 2026-04-27 18:17 | 26.26836 | 50.63078 | 22 ft | 6 kts | 213° |
| 2026-04-27 18:17 | 26.26807 | 50.63058 | 20 ft | 0 kts | 212° |